Aktuální počasí v Česku a ve světě - METAR

Seznam meteostanic umístěných nejčasteji na letišti v ČR a ve světě

Vyhledat místa podle abecedy:
A B C D E F G H I J K L M N O P Q R S T U V W X Y Z

Filtrovat:

ID stanice:
a/nebo
Název místa (fulltext):
 
Místo (ID)Naposledy načteno 
Brussels (EBBR) 16.07.2020 13:50 UTC Zobrazit METAR
EBBR 161350Z 31007KT 280V340 9999 -SHRA SCT014 BKN033 16/13 Q1019 NOSIG
Bucharest (LRBS) 16.07.2020 14:00 UTC Zobrazit METAR
LRBS 161400Z 28004KT 250V350 CAVOK 30/12 Q1010 NOSIG
Budapest (LHBP) 16.07.2020 14:00 UTC Zobrazit METAR
LHBP 161400Z 32009KT 280V350 9999 SCT040 SCT063 BKN200 24/13 Q1013 NOSIG
Buenos Aires (SABE) 16.07.2020 14:00 UTC Zobrazit METAR
SABE 161400Z 03003KT 340V060 8000 -RA FEW042 BKN070 10/04 Q1023 TEMPO 8000 -RA
Bujumbura (HBBA) 06.07.2020 08:00 UTC Zobrazit METAR
HBBA 060800Z 27004KT 8000 FEW025 BKN100 26/22 Q1015 NOSIG
Burgas (LBBG) 16.07.2020 14:00 UTC Zobrazit METAR
LBBG 161400Z 13013KT 9999 FEW043 26/17 Q1011 NOSIG
Bydgoszcz (EPBY) 16.07.2020 13:00 UTC Zobrazit METAR
EPBY 161300Z 29007KT 250V330 9999 FEW039 20/09 Q1012
Cairo (HECA) 16.07.2020 14:00 UTC Zobrazit METAR
HECA 161400Z 33012KT CAVOK 32/17 Q1007 NOSIG
Canberra (YSCB) 16.07.2020 14:00 UTC Zobrazit METAR
YSCB 161400Z AUTO 15007KT 9999 // SCT032 06/03 Q1020
Caracas (SVMP) Zatím nenačteno  
Cayenne (SOCA) 16.07.2020 14:00 UTC Zobrazit METAR
SOCA 161400Z AUTO 08007KT 060V130 9999 BKN030 31/23 Q1014 NOSIG
Charlotte Amalie (TIST) 16.07.2020 13:53 UTC Zobrazit METAR
TIST 161353Z 13011KT 10SM CLR 30/23 A3000 RMK AO2 SLP159 T03000228
Chisinau (LUKK) 16.07.2020 10:00 UTC Zobrazit METAR
LUKK 161000Z 21005KT 130V260 CAVOK 27/12 Q1012 R08/CLRD// TEMPO SCT045CB
Colombo (VCBI) 16.07.2020 13:10 UTC Zobrazit METAR
VCBI 161310Z 20007KT 8000 BKN014 25/25 Q1007 NOSIG
Conakry (GUCY) 16.07.2020 14:00 UTC Zobrazit METAR
GUCY 161400Z 18008KT 8000 -RA BKN013 BKN100 27/25 Q1014 NOSIG
Constanta (LRCK) 16.07.2020 14:00 UTC Zobrazit METAR
LRCK 161400Z 14012KT CAVOK 25/12 Q1011 NOSIG
Constantine (DABC) 16.07.2020 14:00 UTC Zobrazit METAR
DABC 161400Z 01010KT 9999 FEW033 30/16 Q1018
Copenhagen (EKCH) 16.07.2020 13:50 UTC Zobrazit METAR
EKCH 161350Z AUTO 01012KT 9999 BKN074/// OVC100/// 18/09 Q1015 NOSIG
Cork (EICK) 16.07.2020 14:00 UTC Zobrazit METAR
EICK 161400Z 29007KT 260V340 9999 BKN028 21/14 Q1024 NOSIG
Cotonou (DBBB) 16.07.2020 14:00 UTC Zobrazit METAR
DBBB 161400Z 24010KT 9999 SCT011 25/23 Q1013 NOSIG
Curacao Island (TNCC) 16.07.2020 14:00 UTC Zobrazit METAR
TNCC 161400Z 12015KT 100V160 9999 BKN024 31/22 Q1013 NOSIG
Dakar (GOOY) 16.07.2020 14:00 UTC Zobrazit METAR
GOOY 161400Z 28006KT 9999 SCT011 29/22 Q1013
Damascus (OSDI) 16.07.2020 14:00 UTC Zobrazit METAR
OSDI 161400Z 23016KT CAVOK 37/08 Q1005
Debrecen (LHDC) 16.07.2020 11:45 UTC Zobrazit METAR
LHDC 161145Z AUTO 25010KT 210V290 CAVOK 26/13 Q1013
Delhi (VIDP) 16.07.2020 08:00 UTC Zobrazit METAR
VIDP 160800Z 10007KT 4000 HZ SCT030 BKN100 35/26 Q0999 NOSIG
Dhaka (VGZR) Zatím nenačteno  
Diego Garcia (FJDG) 16.07.2020 13:55 UTC Zobrazit METAR
FJDG 161355Z 11011KT 9999 FEW019 SCT050 OVC080 26/24 A2975 RMK SLP071 T02610239
Djibouti (HDAM) 16.07.2020 11:00 UTC Zobrazit METAR
HDAM 161100Z 35008KT 8000 HZ SCT023 SCT150 43/20 Q1001
Dnipropetrovs'k (UKDD) 12.08.2013 14:00 UTC Zobrazit METAR
UKDD 121400Z CAVOK 33/13 Q1012 08090070 NOSIG
Dodoma (HTDO) 16.07.2020 13:00 UTC Zobrazit METAR
HTDO 161300Z 08009KT 9999 FEW021 24/11 Q1019 NOSIG
Doha (OTBD) 16.07.2020 14:00 UTC Zobrazit METAR
OTBD 161400Z 01009KT 8000 NSC 37/28 Q0994 NOSIG
Dortmund (EDLW) 16.07.2020 13:50 UTC Zobrazit METAR
EDLW 161350Z 23004KT 200V280 8000 -RA BKN007 BKN009 BKN048 16/15 Q1017
Dresden (EDDC) 16.07.2020 09:50 UTC Zobrazit METAR
EDDC 160950Z VRB06KT 9999 SCT025 18/11 Q1015 NOSIG
Dublin (EIDW) 16.07.2020 14:00 UTC Zobrazit METAR
EIDW 161400Z 28015KT 9999 FEW026 BKN038 21/14 Q1021 NOSIG
Dubrovnik (LDDU) 16.07.2020 14:00 UTC Zobrazit METAR
LDDU 161400Z 30009KT 270V010 CAVOK 24/13 Q1013 NOSIG
Dushanbe (UTDD) Zatím nenačteno  
Dusseldorf (EDDL) 16.07.2020 10:50 UTC Zobrazit METAR
EDDL 161050Z 23005KT 9999 -DZ FEW004 SCT007 BKN017 16/15 Q1017 TEMPO 4000 BKN012
Dzaoudzi (FMCZ) 16.07.2020 14:00 UTC Zobrazit METAR
FMCZ 161400Z AUTO 19016KT CAVOK 26/19 Q1015 NOSIG
Edinburgh (EGPH) 16.07.2020 13:50 UTC Zobrazit METAR
EGPH 161350Z 25014KT 9999 SCT041 21/15 Q1017
Eindhoven (EHEH) 16.07.2020 13:55 UTC Zobrazit METAR
EHEH 161355Z AUTO 28006KT 230V350 9999 FEW051 OVC056 17/15 Q1017 BLU TEMPO 4500 -DZRA FEW007 SCT009 BKN012
Entebbe (HUEN) 09.07.2020 16:00 UTC Zobrazit METAR
HUEN 091600Z 27010KT 9999 FEW021 24/17 Q1014
Esbjerg (EKEB) 16.07.2020 13:50 UTC Zobrazit METAR
EKEB 161350Z AUTO 25010KT 9999 FEW026/// FEW078/// 19/13 Q1017
Faro (LPFR) 16.07.2020 14:00 UTC Zobrazit METAR
LPFR 161400Z 12013KT CAVOK 32/13 Q1013
Florence (LIRQ) 16.07.2020 13:50 UTC Zobrazit METAR
LIRQ 161350Z 27005KT 220V310 9999 SCT050 31/13 Q1012
Foggia, Gino Lisa (LIBF) 16.07.2020 07:50 UTC Zobrazit METAR
LIBF 160750Z 32006KT CAVOK 24/16 Q1014
Fort de France (TFFF) 16.07.2020 14:00 UTC Zobrazit METAR
TFFF 161400Z AUTO 09009KT 040V130 9999 FEW028 SCT062 30/24 Q1015 TEMPO 3000 SHRA FEW015CB BKN018TCU
Frankfurt/ Main (EDDF) 16.07.2020 13:50 UTC Zobrazit METAR
EDDF 161350Z 24008KT 210V270 9999 FEW018 SCT028 BKN046 17/12 Q1017 NOSIG
Freetown (GFLL) 05.05.2020 19:00 UTC Zobrazit METAR
GFLL 051900Z 27009KT 9999 SCT013 30/24 Q1008
Funafuti (NGFU) 16.07.2020 13:00 UTC Zobrazit METAR
NGFU 161300Z VRB02KT 9999 FEW020 28/24 Q1009
Gaborone (FBSK) 16.07.2020 14:00 UTC Zobrazit METAR
FBSK 161400Z VRB03KT CAVOK 18/M10 Q1035 NOSIG
Předchozí 1 2 3 4 5 ... 9 Další
Reklama

Počasí na Váš email

Emaily jsou bez reklamy a bez spamu



Odhlásit newsletter



❤️ Podpořte nás

Napište o nás recenzi na Google
Ohodnoťte nás na Firmy.cz

Pošlete nám finanční podporu - firma nedostala žádné dotace ani podporu z Coronaviru, zato letos platíme vyšší daně.
Další české internetové stránky (nejen) o počasí najdete v katalogu TOPlist - weby o počasí nebo vyhledejte na internetu, co jste tu na 🌞 Slunečnu ⛅ zatím nenašli:
⬆️ Posunout nahoru ⬆️
Reklama